createdAt,value
2023-11-07T00:00:42.232Z,97364.22
2023-11-07T00:03:12.529Z,97356.44
2023-11-07T00:05:40.378Z,97371.59
2023-11-07T00:08:07.849Z,97373.06
2023-11-07T00:10:39.298Z,97355.66
2023-11-07T00:13:07.691Z,97365.91
2023-11-07T00:15:36.385Z,97358.28
2023-11-07T00:18:03.850Z,97305.16
2023-11-07T00:20:32.837Z,97357.56
2023-11-07T00:23:00.582Z,97321.09
2023-11-07T00:25:28.059Z,97363.97
2023-11-07T00:27:55.166Z,97349.19
2023-11-07T00:30:23.439Z,97373.97
2023-11-07T00:32:53.891Z,97369.75
2023-11-07T00:35:21.162Z,97374.75
2023-11-07T00:37:48.353Z,97366.75
2023-11-07T00:40:15.899Z,97377.91
2023-11-07T00:42:43.745Z,97380.34
2023-11-07T00:45:12.216Z,97382.06
2023-11-07T00:47:39.616Z,97364.19
2023-11-07T00:50:11.814Z,97358.16
2023-11-07T00:52:39.893Z,97380.88
2023-11-07T00:55:09.464Z,97385.41
2023-11-07T00:57:37.796Z,97353.78
2023-11-07T01:00:10.573Z,97372.22
2023-11-07T01:02:40.643Z,97381.81
2023-11-07T01:05:09.197Z,97375.75
2023-11-07T01:07:38.222Z,97372.53
2023-11-07T01:10:05.839Z,97384.03
2023-11-07T01:12:33.791Z,97364.19
2023-11-07T01:15:01.080Z,97377.66
2023-11-07T01:17:29.846Z,97375.91
2023-11-07T01:19:57.443Z,97378.06
2023-11-07T01:22:26.956Z,97369.06
2023-11-07T01:24:54.919Z,97376.91
2023-11-07T01:27:22.421Z,97379.94
2023-11-07T01:29:51.157Z,97382.22
2023-11-07T01:32:20.681Z,97395.91
2023-11-07T01:34:49.368Z,97399.16
2023-11-07T01:37:17.676Z,97387.09
2023-11-07T01:39:45.274Z,97393.22
2023-11-07T01:42:13.980Z,97366.94
2023-11-07T01:44:51.265Z,97391.41
2023-11-07T01:47:24.879Z,97398.78
2023-11-07T01:49:52.942Z,97391.22
2023-11-07T01:52:21.528Z,97376.78
2023-11-07T01:54:54.842Z,97395.91
2023-11-07T01:57:23.824Z,97390.03
2023-11-07T01:59:54.361Z,97403.28
2023-11-07T02:02:23.912Z,97414.09
2023-11-07T02:04:51.555Z,97408.31
2023-11-07T02:07:19.621Z,97414.53
2023-11-07T02:09:47.019Z,97408.94
2023-11-07T02:12:14.618Z,97428.44
2023-11-07T02:14:42.688Z,97425.41
2023-11-07T02:17:11.098Z,97435.78
2023-11-07T02:19:40.435Z,97429.66
2023-11-07T02:22:27.583Z,97439.69
2023-11-07T02:24:54.655Z,97409.72
2023-11-07T02:27:23.683Z,97408.69
2023-11-07T02:29:51.771Z,97428.41
2023-11-07T02:32:23.930Z,97405.69
2023-11-07T02:34:55.043Z,97436.25
2023-11-07T02:37:22.469Z,97421.50
2023-11-07T02:39:50.357Z,97438.66
2023-11-07T02:42:18.428Z,97444.47
2023-11-07T02:44:46.019Z,97425.09
2023-11-07T02:47:14.216Z,97436.97
2023-11-07T02:49:41.402Z,97440.53
2023-11-07T02:52:08.732Z,97438.44
2023-11-07T02:54:36.158Z,97426.97
2023-11-07T02:57:04.559Z,97435.31
2023-11-07T02:59:32.952Z,97435.53
2023-11-07T03:02:04.771Z,97437.34
2023-11-07T03:04:33.990Z,97449.41
2023-11-07T03:07:02.061Z,97441.66
2023-11-07T03:09:29.335Z,97453.78
2023-11-07T03:11:56.603Z,97457.16
2023-11-07T03:14:24.282Z,97452.00
2023-11-07T03:16:53.254Z,97445.34
2023-11-07T03:19:20.496Z,97448.25
2023-11-07T03:21:47.606Z,97454.72
2023-11-07T03:24:16.396Z,97447.13
2023-11-07T03:26:45.427Z,97442.13
2023-11-07T03:29:13.013Z,97448.78
2023-11-07T03:31:41.396Z,97431.59
2023-11-07T03:34:10.557Z,97453.22
2023-11-07T03:36:39.904Z,97445.84
2023-11-07T03:39:07.828Z,97423.75
2023-11-07T03:41:35.498Z,97437.34
2023-11-07T03:44:02.838Z,97444.19
2023-11-07T03:46:31.446Z,97450.00
2023-11-07T03:48:59.631Z,97457.94
2023-11-07T03:51:27.307Z,97447.88
2023-11-07T03:53:55.584Z,97470.50
2023-11-07T03:56:24.129Z,97445.22
2023-11-07T03:58:53.525Z,97453.03
2023-11-07T04:01:20.743Z,97454.50
2023-11-07T04:03:49.077Z,97463.47
2023-11-07T04:06:16.647Z,97461.16
2023-11-07T04:08:44.006Z,97454.16
2023-11-07T04:11:11.422Z,97359.41
2023-11-07T04:13:38.601Z,97438.78
2023-11-07T04:16:07.354Z,97466.19
2023-11-07T04:18:34.903Z,97459.16
2023-11-07T04:21:05.571Z,97472.22
2023-11-07T04:23:33.389Z,97443.16
2023-11-07T04:26:02.813Z,97408.25
2023-11-07T04:28:32.409Z,97462.47
2023-11-07T04:31:00.849Z,97461.63
2023-11-07T04:33:29.030Z,97465.69
2023-11-07T04:35:56.340Z,97443.41
2023-11-07T04:38:23.634Z,97452.19
2023-11-07T04:40:50.776Z,97473.44
2023-11-07T04:43:17.855Z,97470.69
2023-11-07T04:45:45.022Z,97466.44
2023-11-07T04:48:13.599Z,97481.44
2023-11-07T04:50:41.777Z,97469.63
2023-11-07T04:53:14.429Z,97469.16
2023-11-07T04:55:42.980Z,97470.31
2023-11-07T04:58:11.592Z,97483.72
2023-11-07T05:00:39.983Z,97480.66
2023-11-07T05:03:07.807Z,97485.88
2023-11-07T05:05:36.615Z,97501.84
2023-11-07T05:08:04.843Z,97478.84
2023-11-07T05:10:37.729Z,97507.44
2023-11-07T05:13:08.694Z,97486.88
2023-11-07T05:15:46.529Z,97517.06
2023-11-07T05:18:16.996Z,97518.78
2023-11-07T05:20:45.929Z,97527.09
2023-11-07T05:23:14.895Z,97536.22
2023-11-07T05:25:48.684Z,97520.22
2023-11-07T05:28:19.985Z,97529.09
2023-11-07T05:30:47.319Z,97518.09
2023-11-07T05:33:14.782Z,97536.56
2023-11-07T05:35:47.929Z,97539.03
2023-11-07T05:38:16.873Z,97539.53
2023-11-07T05:40:44.740Z,97538.97
2023-11-07T05:43:13.551Z,97542.91
2023-11-07T05:45:42.854Z,97511.22
2023-11-07T05:48:10.159Z,97546.41
2023-11-07T05:50:38.684Z,97544.41
2023-11-07T05:53:07.045Z,97541.78
2023-11-07T05:55:35.224Z,97553.28
2023-11-07T05:58:02.485Z,97553.69
2023-11-07T06:00:30.119Z,97558.16
2023-11-07T06:02:57.731Z,97572.91
2023-11-07T06:05:25.061Z,97554.22
2023-11-07T06:07:57.309Z,97520.25
2023-11-07T06:10:27.396Z,97578.78
2023-11-07T06:12:54.468Z,97552.84
2023-11-07T06:15:22.072Z,97565.41
2023-11-07T06:17:49.451Z,97567.41
2023-11-07T06:20:19.767Z,97515.84
2023-11-07T06:22:47.562Z,97574.97
2023-11-07T06:25:17.999Z,97583.63
2023-11-07T06:27:45.276Z,97574.50
2023-11-07T06:30:14.065Z,97590.53
2023-11-07T06:32:41.556Z,97572.53
2023-11-07T06:35:11.246Z,97578.00
2023-11-07T06:37:43.909Z,97590.63
2023-11-07T06:40:17.382Z,97591.81
2023-11-07T06:42:48.633Z,97586.50
2023-11-07T06:45:21.373Z,97594.16
2023-11-07T06:47:53.843Z,97590.31
2023-11-07T06:50:24.082Z,97570.00
2023-11-07T06:52:57.169Z,97546.34
2023-11-07T06:55:41.340Z,97568.88
2023-11-07T06:58:13.064Z,97593.44
2023-11-07T07:01:13.395Z,97575.16
2023-11-07T07:03:47.475Z,97589.00
2023-11-07T07:06:17.610Z,97592.41
2023-11-07T07:08:44.923Z,97580.88
2023-11-07T07:11:15.904Z,97576.69
2023-11-07T07:13:43.253Z,97594.50
2023-11-07T07:16:15.027Z,97589.91
2023-11-07T07:18:44.060Z,97601.41
2023-11-07T07:21:12.502Z,97602.94
2023-11-07T07:23:48.847Z,97555.28
2023-11-07T07:26:20.138Z,97589.28
2023-11-07T07:28:48.231Z,97572.38
2023-11-07T07:31:21.324Z,97564.75
2023-11-07T07:33:48.598Z,97590.69
2023-11-07T07:36:19.543Z,97585.72
2023-11-07T07:39:38.634Z,97595.78
2023-11-07T07:42:15.442Z,97551.06
2023-11-07T07:44:55.236Z,97590.50
2023-11-07T07:47:26.432Z,97586.47
2023-11-07T07:49:56.307Z,97585.50
2023-11-07T07:52:25.155Z,97590.56
2023-11-07T07:55:07.129Z,97587.09
2023-11-07T07:57:43.442Z,97570.47
2023-11-07T08:00:26.025Z,97578.81
2023-11-07T08:02:58.877Z,97579.59
2023-11-07T08:05:32.911Z,97575.50
2023-11-07T08:08:02.801Z,97582.53
2023-11-07T08:10:30.514Z,97569.50
2023-11-07T08:13:02.993Z,97590.47
2023-11-07T08:15:31.966Z,97578.03
2023-11-07T08:18:09.785Z,97598.50
2023-11-07T08:20:46.545Z,97591.34
2023-11-07T08:23:35.035Z,97593.38
2023-11-07T08:26:11.611Z,97569.97
2023-11-07T08:28:44.980Z,97556.63
2023-11-07T08:31:15.717Z,97585.88
2023-11-07T08:33:45.568Z,97576.34
2023-11-07T08:36:15.681Z,97593.72
2023-11-07T08:38:47.617Z,97590.25
2023-11-07T08:41:21.710Z,97587.72
2023-11-07T08:43:50.550Z,97587.78
2023-11-07T08:46:39.102Z,97599.63
2023-11-07T08:49:36.870Z,97591.09
2023-11-07T08:52:13.896Z,97579.81
2023-11-07T08:54:44.395Z,97589.34
2023-11-07T08:57:12.947Z,97576.53
2023-11-07T08:59:46.809Z,97548.22
2023-11-07T09:02:17.811Z,97589.66
2023-11-07T09:07:36.871Z,97585.28
2023-11-07T09:10:04.566Z,97589.16
2023-11-07T09:12:33.487Z,97593.56
2023-11-07T09:15:06.892Z,97594.19
2023-11-07T09:17:40.182Z,97565.94
2023-11-07T09:20:13.491Z,97513.50
2023-11-07T09:22:43.600Z,97563.25
2023-11-07T09:25:19.021Z,97568.81
2023-11-07T09:28:01.774Z,97563.47
2023-11-07T09:30:49.471Z,97533.88
2023-11-07T09:33:17.854Z,97531.34
2023-11-07T09:35:44.998Z,97560.69
2023-11-07T09:38:12.604Z,97556.75
2023-11-07T09:40:45.695Z,97555.81
2023-11-07T09:43:13.745Z,97542.06
2023-11-07T09:45:42.456Z,97545.41
2023-11-07T09:48:12.129Z,97530.53
2023-11-07T09:50:47.812Z,97544.19
2023-11-07T09:53:19.160Z,97524.47
2023-11-07T09:55:51.077Z,97518.78
2023-11-07T09:58:29.620Z,97514.78
2023-11-07T10:01:01.062Z,97516.66
2023-11-07T10:03:33.067Z,97505.91
2023-11-07T10:06:04.929Z,97496.66
2023-11-07T10:08:35.747Z,97493.28
2023-11-07T10:11:17.651Z,97473.56
2023-11-07T10:14:04.553Z,97496.28
2023-11-07T10:16:43.747Z,97478.41
2023-11-07T10:19:17.896Z,97488.97
2023-11-07T10:21:48.394Z,97464.63
2023-11-07T10:24:18.435Z,97475.19
2023-11-07T10:27:00.548Z,97468.03
2023-11-07T10:29:38.250Z,97454.78
2023-11-07T10:32:16.914Z,97441.78
2023-11-07T10:34:45.938Z,97455.97
2023-11-07T10:37:13.200Z,97434.31
2023-11-07T10:39:41.469Z,97439.78
2023-11-07T10:42:21.033Z,97414.59
2023-11-07T10:45:02.272Z,97401.00
2023-11-07T10:47:47.235Z,97446.81
2023-11-07T10:50:18.958Z,97436.88
2023-11-07T10:52:49.436Z,97419.19
2023-11-07T10:55:19.806Z,97422.72
2023-11-07T10:57:59.511Z,97437.78
2023-11-07T11:01:03.432Z,97436.47
2023-11-07T11:04:10.544Z,97428.13
2023-11-07T11:06:43.296Z,97417.00
2023-11-07T11:09:12.409Z,97415.09
2023-11-07T11:11:43.225Z,97422.34
2023-11-07T11:14:10.944Z,97389.88
2023-11-07T11:16:42.400Z,97408.66
2023-11-07T11:19:55.168Z,97395.97
2023-11-07T11:22:43.677Z,97412.81
2023-11-07T11:25:38.423Z,97417.69
2023-11-07T11:28:06.927Z,97413.28
2023-11-07T11:30:40.144Z,97390.00
2023-11-07T11:33:16.082Z,97393.22
2023-11-07T11:35:47.984Z,97350.53
2023-11-07T11:38:17.768Z,97387.94
2023-11-07T11:41:05.628Z,97357.22
2023-11-07T11:43:43.562Z,97384.72
2023-11-07T11:46:14.766Z,97372.72
2023-11-07T11:48:52.483Z,97378.69
2023-11-07T11:52:16.728Z,97368.47
2023-11-07T12:04:41.960Z,97361.06
2023-11-07T12:07:33.919Z,97361.53
2023-11-07T12:10:08.191Z,97336.75
2023-11-07T12:12:39.102Z,97349.75
2023-11-07T12:15:24.373Z,97365.56
2023-11-07T12:17:53.432Z,97352.09
2023-11-07T12:20:21.122Z,97356.97
2023-11-07T12:22:52.413Z,97351.28
2023-11-07T12:25:23.541Z,97357.19
2023-11-07T12:28:07.899Z,97350.53
2023-11-07T12:30:40.555Z,97355.78
2023-11-07T12:33:11.064Z,97357.34
2023-11-07T12:35:42.120Z,97331.97
2023-11-07T12:38:11.904Z,97352.72
2023-11-07T12:40:41.589Z,97332.03
2023-11-07T12:43:10.098Z,97350.41
2023-11-07T12:45:41.087Z,97332.34
2023-11-07T12:48:12.160Z,97333.25
2023-11-07T12:50:45.621Z,97326.47
2023-11-07T12:53:19.406Z,97316.34
2023-11-07T12:55:55.986Z,97339.78
2023-11-07T12:58:31.715Z,97317.16
2023-11-07T13:01:02.125Z,97344.03
2023-11-07T13:03:35.183Z,97339.56
2023-11-07T13:06:45.912Z,97333.16
2023-11-07T13:09:33.530Z,97341.31
2023-11-07T13:15:32.660Z,97326.66
2023-11-07T13:18:26.373Z,97323.28
2023-11-07T13:21:21.721Z,97313.63
2023-11-07T13:23:55.304Z,97308.28
2023-11-07T13:26:35.019Z,97321.25
2023-11-07T13:29:07.555Z,97318.41
2023-11-07T13:31:37.267Z,97322.53
2023-11-07T13:34:07.060Z,97313.69
2023-11-07T13:36:36.378Z,97302.56
2023-11-07T13:39:06.516Z,97303.09
2023-11-07T13:41:37.861Z,97298.09
2023-11-07T13:44:07.936Z,97312.66
2023-11-07T13:46:38.460Z,97313.97
2023-11-07T13:49:10.553Z,97296.22
2023-11-07T13:51:42.713Z,97295.00
2023-11-07T13:54:11.015Z,97290.69
2023-11-07T13:56:42.149Z,97308.44
2023-11-07T13:59:10.154Z,97289.81
2023-11-07T14:01:41.908Z,97295.78
2023-11-07T14:04:10.936Z,97294.63
2023-11-07T14:06:39.885Z,97286.59
2023-11-07T14:09:11.308Z,97267.88
2023-11-07T14:11:43.828Z,97273.63
2023-11-07T14:14:13.110Z,97276.94
2023-11-07T14:16:49.577Z,97264.53
2023-11-07T14:19:19.536Z,97284.25
2023-11-07T14:21:48.636Z,97286.91
2023-11-07T14:24:18.240Z,97283.53
2023-11-07T14:26:46.337Z,97298.13
2023-11-07T14:31:47.140Z,97307.97
2023-11-07T14:34:15.811Z,97306.28
2023-11-07T14:36:44.688Z,97291.38
2023-11-07T14:39:14.144Z,97326.38
2023-11-07T14:41:44.381Z,97307.41
2023-11-07T14:44:16.553Z,97293.66
2023-11-07T14:46:47.483Z,97303.56
2023-11-07T14:49:18.968Z,97320.78
2023-11-07T14:51:48.067Z,97302.25
2023-11-07T14:54:15.554Z,97326.63
2023-11-07T15:00:10.712Z,97318.13
2023-11-07T15:02:39.837Z,97325.53
2023-11-07T15:05:13.592Z,97330.94
2023-11-07T15:13:43.244Z,97328.25
2023-11-07T15:16:12.247Z,97301.22
2023-11-07T15:18:44.026Z,97339.44
2023-11-07T15:21:13.001Z,97346.19
2023-11-07T15:23:41.193Z,97337.38
2023-11-07T15:26:09.920Z,97337.94
2023-11-07T15:28:40.813Z,97346.97
2023-11-07T15:31:08.539Z,97350.53
2023-11-07T15:33:49.178Z,97338.25
2023-11-07T15:36:20.267Z,97345.06
2023-11-07T15:38:50.862Z,97356.97
2023-11-07T15:41:18.978Z,97340.94
2023-11-07T15:43:57.984Z,97353.88
2023-11-07T15:46:27.382Z,97343.09
2023-11-07T15:48:55.020Z,97350.44
2023-11-07T15:51:24.585Z,97345.53
2023-11-07T15:53:55.126Z,97354.69
2023-11-07T15:56:23.056Z,97354.41
2023-11-07T15:58:50.153Z,97362.50
2023-11-07T16:01:19.203Z,97353.25
2023-11-07T16:03:48.092Z,97359.38
2023-11-07T16:06:21.066Z,97375.63
2023-11-07T16:08:50.576Z,97371.66
2023-11-07T16:11:18.004Z,97363.38
2023-11-07T16:13:46.211Z,97373.44
2023-11-07T16:16:14.636Z,97363.22
2023-11-07T16:18:42.032Z,97370.66
2023-11-07T16:21:10.300Z,97357.16
2023-11-07T16:23:37.349Z,97364.91
2023-11-07T16:26:05.508Z,97351.69
2023-11-07T16:28:32.589Z,97356.09
2023-11-07T16:31:00.782Z,97361.88
2023-11-07T16:33:28.684Z,97364.91
2023-11-07T16:36:07.431Z,97363.75
2023-11-07T16:38:34.682Z,97365.66
2023-11-07T16:41:02.016Z,97342.16
2023-11-07T16:54:03.770Z,97375.41
2023-11-07T16:56:32.095Z,97378.72
2023-11-07T16:59:00.563Z,97384.56
2023-11-07T17:01:31.742Z,97381.44
2023-11-07T17:03:59.319Z,97384.66
2023-11-07T17:23:13.693Z,97365.63
2023-11-07T17:25:46.073Z,97370.66
2023-11-07T17:28:13.848Z,97381.50
2023-11-07T17:30:44.516Z,97339.63
2023-11-07T17:33:13.517Z,97369.19
2023-11-07T17:35:43.532Z,97341.19
2023-11-07T17:38:15.404Z,97371.56
2023-11-07T17:40:43.002Z,97370.22
2023-11-07T17:46:41.146Z,97365.81
2023-11-07T17:49:13.039Z,97366.53
2023-11-07T17:51:44.953Z,97359.22
2023-11-07T17:54:19.406Z,97374.94
2023-11-07T17:56:46.931Z,97376.63
2023-11-07T17:59:16.026Z,97362.78
2023-11-07T18:01:49.823Z,97371.94
2023-11-07T18:04:17.027Z,97371.34
2023-11-07T18:06:49.265Z,97367.53
2023-11-07T18:09:16.786Z,97363.53
2023-11-07T18:11:48.487Z,97366.97
2023-11-07T18:14:18.128Z,97346.25
2023-11-07T18:16:47.693Z,97356.25
2023-11-07T18:19:15.384Z,97360.22
2023-11-07T18:21:46.218Z,97348.63
2023-11-07T18:24:13.449Z,97367.63
2023-11-07T18:26:47.605Z,97359.88
2023-11-07T18:29:17.510Z,97357.47
2023-11-07T18:31:49.569Z,97296.06
2023-11-07T18:34:23.256Z,97348.00
2023-11-07T18:37:08.434Z,97350.38
2023-11-07T18:39:37.579Z,97358.13
2023-11-07T18:42:05.398Z,97339.91
2023-11-07T18:44:37.049Z,97358.34
2023-11-07T18:47:05.218Z,97354.50
2023-11-07T18:49:36.987Z,97346.06
2023-11-07T18:52:06.390Z,97327.84
2023-11-07T18:54:34.798Z,97345.53
2023-11-07T18:57:16.178Z,97362.03
2023-11-07T18:59:44.691Z,97353.88
2023-11-07T19:02:14.780Z,97362.41
2023-11-07T19:04:44.500Z,97369.50
2023-11-07T19:07:13.886Z,97373.25
2023-11-07T19:09:42.178Z,97336.75
2023-11-07T19:12:09.665Z,97359.13
2023-11-07T19:14:42.380Z,97360.63
2023-11-07T19:17:15.447Z,97373.47
2023-11-07T19:19:43.558Z,97378.06
2023-11-07T19:22:19.531Z,97344.34
2023-11-07T19:24:59.168Z,97350.28
2023-11-07T19:27:27.034Z,97361.31
2023-11-07T19:29:56.327Z,97360.75
2023-11-07T19:33:22.198Z,97149.59
2023-11-07T19:35:50.873Z,97345.53
2023-11-07T19:38:20.021Z,97363.91
2023-11-07T19:45:12.185Z,97364.94
2023-11-07T19:47:39.873Z,97350.97
2023-11-07T19:50:13.123Z,97358.78
2023-11-07T19:52:46.165Z,97354.78
2023-11-07T19:55:16.217Z,97356.25
2023-11-07T19:57:45.048Z,97357.38
2023-11-07T20:00:25.311Z,97364.28
2023-11-07T20:02:54.143Z,97329.59
2023-11-07T20:05:24.783Z,97362.59
2023-11-07T20:07:57.086Z,97367.09
2023-11-07T20:10:27.333Z,97331.28
2023-11-07T20:12:54.401Z,97370.63
2023-11-07T20:15:21.675Z,97373.50
2023-11-07T20:18:41.051Z,97367.84
2023-11-07T20:21:08.455Z,97353.69
2023-11-07T20:23:36.245Z,97342.56
2023-11-07T20:26:06.478Z,97353.44
2023-11-07T20:28:34.772Z,97348.84
2023-11-07T20:31:04.980Z,97343.03
2023-11-07T20:33:41.584Z,97349.75
2023-11-07T20:36:20.613Z,97348.81
2023-11-07T20:38:54.218Z,97344.25
2023-11-07T20:41:22.250Z,97344.06
2023-11-07T20:43:51.423Z,97353.78
2023-11-07T20:46:33.049Z,97343.16
2023-11-07T20:49:05.083Z,97324.78
2023-11-07T20:51:33.497Z,97347.53
2023-11-07T20:54:05.217Z,97341.47
2023-11-07T20:56:36.098Z,97342.19
2023-11-07T20:59:04.393Z,97328.81
2023-11-07T21:01:32.543Z,97326.09
2023-11-07T21:04:01.300Z,97323.06
2023-11-07T21:06:29.234Z,97339.31
2023-11-07T21:08:57.011Z,97341.75
2023-11-07T21:11:24.254Z,97347.06
2023-11-07T21:13:52.710Z,97328.31
2023-11-07T21:16:21.047Z,97332.06
2023-11-07T21:18:50.574Z,97333.09
2023-11-07T21:21:18.180Z,97349.28
2023-11-07T21:23:46.351Z,97353.38
2023-11-07T21:26:15.221Z,97348.47
2023-11-07T21:28:45.958Z,97334.84
2023-11-07T21:31:13.990Z,97344.41
2023-11-07T21:33:42.362Z,97346.78
2023-11-07T21:36:10.602Z,97350.22
2023-11-07T21:38:40.167Z,97346.13
2023-11-07T21:41:07.535Z,97347.63
2023-11-07T21:43:34.797Z,97345.16
2023-11-07T21:46:01.852Z,97341.56
2023-11-07T21:48:29.398Z,97322.06
2023-11-07T21:50:59.009Z,97337.38
2023-11-07T21:53:28.851Z,97335.84
2023-11-07T21:56:00.146Z,97303.69
2023-11-07T21:58:31.821Z,97331.56
2023-11-07T22:00:59.114Z,97332.06
2023-11-07T22:03:28.162Z,97259.25
2023-11-07T22:05:56.538Z,97318.88
2023-11-07T22:08:26.915Z,97309.81
2023-11-07T22:10:56.017Z,97291.19
2023-11-07T22:13:27.927Z,97317.56
2023-11-07T22:16:00.417Z,97305.53
2023-11-07T22:18:30.027Z,97299.50
2023-11-07T22:20:58.378Z,97298.97
2023-11-07T22:23:25.387Z,97238.47
2023-11-07T22:25:52.811Z,97279.19
2023-11-07T22:28:21.894Z,97305.34
2023-11-07T22:30:53.904Z,97290.13
2023-11-07T22:33:26.273Z,97284.72
2023-11-07T22:35:57.189Z,97280.63
2023-11-07T22:38:25.853Z,97279.16
2023-11-07T22:40:54.980Z,97271.00
2023-11-07T22:43:24.592Z,97288.81
2023-11-07T22:45:52.370Z,97279.75
2023-11-07T22:48:23.391Z,97273.19
2023-11-07T22:50:53.586Z,97283.28
2023-11-07T22:53:21.892Z,97274.69
2023-11-07T22:55:59.776Z,97204.53
2023-11-07T22:58:28.902Z,97267.72
2023-11-07T23:00:57.581Z,97271.91
2023-11-07T23:03:27.080Z,97273.47
2023-11-07T23:05:56.719Z,97258.59
2023-11-07T23:08:24.022Z,97242.56
2023-11-07T23:10:51.882Z,97250.56
2023-11-07T23:13:23.943Z,97244.88
2023-11-07T23:15:55.490Z,97237.31
2023-11-07T23:18:23.447Z,97240.16
2023-11-07T23:20:56.422Z,97249.66
2023-11-07T23:23:27.178Z,97245.09
2023-11-07T23:25:54.350Z,97245.78
2023-11-07T23:28:22.043Z,97236.09
2023-11-07T23:30:50.423Z,97232.34
2023-11-07T23:33:20.015Z,97248.13
2023-11-07T23:35:47.517Z,97251.97
2023-11-07T23:38:19.471Z,97241.63
2023-11-07T23:40:48.523Z,97253.34
2023-11-07T23:43:17.394Z,97243.41
2023-11-07T23:45:46.177Z,97212.25
2023-11-07T23:48:13.658Z,97237.13
2023-11-07T23:50:42.268Z,97205.28
2023-11-07T23:53:11.410Z,97213.22
2023-11-07T23:55:41.090Z,97217.31
2023-11-07T23:58:08.122Z,97216.91
